Terminal Aerodrome Forecast
Issued by NWS La Crosse, WI

Home | Current Version | Previous Version | Text Only | Print | Product List | Glossary On
Versions: 1 2 3 4 5 6 7 8 9 10 11 12 13 14 15 16 17 18 19 20 21 22 23 24 25 26 27 28 29
000
FTUS43 KARX 201145 CCA
TAFRST
TAF COR
KRST 201145Z 2012/2112 24013G20KT P6SM VCSH BKN130
     FM201600 30012G18KT P6SM BKN150
     FM201800 31013G20KT P6SM SCT250
     FM210100 29007KT P6SM VCSH BKN050
     FM210300 29011KT P6SM SCT050=

USA.gov is the U.S. government's official web portal to all federal, state and local government web resources and services.